sensor_id;sensor_type;location;lat;lon;timestamp;pressure;altitude;pressure_sealevel;temperature;humidity
13314;BME280;6725;48.112;11.604;2022-08-19T00:01:12;93522.72;;;19.34;100.00
13314;BME280;6725;48.112;11.604;2022-08-19T00:03:37;93554.69;;;19.35;100.00
13314;BME280;6725;48.112;11.604;2022-08-19T00:06:02;93576.34;;;19.36;100.00
13314;BME280;6725;48.112;11.604;2022-08-19T00:08:28;93577.34;;;19.44;100.00
13314;BME280;6725;48.112;11.604;2022-08-19T00:10:53;93586.16;;;19.43;100.00
13314;BME280;6725;48.112;11.604;2022-08-19T00:13:19;93600.00;;;19.43;100.00
13314;BME280;6725;48.112;11.604;2022-08-19T00:15:44;93616.09;;;19.44;100.00
13314;BME280;6725;48.112;11.604;2022-08-19T00:18:10;93622.91;;;19.49;100.00
13314;BME280;6725;48.112;11.604;2022-08-19T00:20:36;93635.72;;;19.52;100.00
13314;BME280;6725;48.112;11.604;2022-08-19T00:23:05;93652.88;;;19.56;100.00
13314;BME280;6725;48.112;11.604;2022-08-19T00:25:30;93664.69;;;19.57;100.00
13314;BME280;6725;48.112;11.604;2022-08-19T00:27:56;93667.72;;;19.53;100.00
13314;BME280;6725;48.112;11.604;2022-08-19T00:30:21;93676.28;;;19.55;100.00
13314;BME280;6725;48.112;11.604;2022-08-19T00:32:47;93681.81;;;19.55;100.00
13314;BME280;6725;48.112;11.604;2022-08-19T00:35:12;93687.34;;;19.55;100.00
13314;BME280;6725;48.112;11.604;2022-08-19T00:37:38;93708.00;;;19.54;100.00
13314;BME280;6725;48.112;11.604;2022-08-19T00:40:05;93712.78;;;19.59;100.00
13314;BME280;6725;48.112;11.604;2022-08-19T00:42:30;93718.59;;;19.61;100.00
13314;BME280;6725;48.112;11.604;2022-08-19T00:44:56;93728.16;;;19.60;100.00
13314;BME280;6725;48.112;11.604;2022-08-19T00:47:21;93735.44;;;19.58;100.00
13314;BME280;6725;48.112;11.604;2022-08-19T00:49:48;93734.44;;;19.61;100.00
13314;BME280;6725;48.112;11.604;2022-08-19T00:52:37;93733.44;;;19.52;100.00
13314;BME280;6725;48.112;11.604;2022-08-19T00:55:07;93722.34;;;19.58;100.00
13314;BME280;6725;48.112;11.604;2022-08-19T00:57:38;93727.66;;;19.56;100.00
13314;BME280;6725;48.112;11.604;2022-08-19T01:00:11;93738.72;;;19.56;100.00
13314;BME280;6725;48.112;11.604;2022-08-19T01:02:38;93750.81;;;19.53;100.00
13314;BME280;6725;48.112;11.604;2022-08-19T01:05:07;93772.19;;;19.47;100.00
13314;BME280;6725;48.112;11.604;2022-08-19T01:07:34;93756.81;;;19.35;100.00
13314;BME280;6725;48.112;11.604;2022-08-19T01:09:59;93740.19;;;19.35;100.00
13314;BME280;6725;48.112;11.604;2022-08-19T01:12:25;93731.09;;;19.29;100.00
13314;BME280;6725;48.112;11.604;2022-08-19T01:14:51;93726.34;;;19.29;100.00
13314;BME280;6725;48.112;11.604;2022-08-19T01:17:17;93710.72;;;19.32;100.00
13314;BME280;6725;48.112;11.604;2022-08-19T01:19:45;93707.97;;;19.32;100.00
13314;BME280;6725;48.112;11.604;2022-08-19T01:24:50;93726.09;;;19.33;100.00
13314;BME280;6725;48.112;11.604;2022-08-19T01:27:17;93729.84;;;19.35;100.00
13314;BME280;6725;48.112;11.604;2022-08-19T01:29:43;93731.63;;;19.33;100.00
13314;BME280;6725;48.112;11.604;2022-08-19T01:32:12;93741.97;;;19.32;100.00
13314;BME280;6725;48.112;11.604;2022-08-19T01:34:39;93753.53;;;19.36;100.00
13314;BME280;6725;48.112;11.604;2022-08-19T01:37:08;93763.63;;;19.39;100.00
13314;BME280;6725;48.112;11.604;2022-08-19T01:39:37;93766.41;;;19.45;100.00
13314;BME280;6725;48.112;11.604;2022-08-19T01:42:03;93768.91;;;19.48;100.00
13314;BME280;6725;48.112;11.604;2022-08-19T01:44:29;93763.13;;;19.52;100.00
13314;BME280;6725;48.112;11.604;2022-08-19T01:46:55;93772.97;;;19.53;100.00
13314;BME280;6725;48.112;11.604;2022-08-19T01:49:24;93788.06;;;19.52;100.00
13314;BME280;6725;48.112;11.604;2022-08-19T01:51:52;93782.78;;;19.54;100.00
13314;BME280;6725;48.112;11.604;2022-08-19T01:54:21;93803.44;;;19.53;100.00
13314;BME280;6725;48.112;11.604;2022-08-19T01:56:47;93808.97;;;19.53;100.00
13314;BME280;6725;48.112;11.604;2022-08-19T01:59:16;93826.31;;;19.48;100.00
13314;BME280;6725;48.112;11.604;2022-08-19T02:01:42;93815.75;;;19.52;100.00
13314;BME280;6725;48.112;11.604;2022-08-19T02:04:08;93815.00;;;19.52;100.00
13314;BME280;6725;48.112;11.604;2022-08-19T02:06:34;93816.78;;;19.49;100.00
13314;BME280;6725;48.112;11.604;2022-08-19T02:09:00;93826.31;;;19.48;100.00
13314;BME280;6725;48.112;11.604;2022-08-19T02:11:28;93841.94;;;19.51;100.00
13314;BME280;6725;48.112;11.604;2022-08-19T02:13:55;93858.81;;;19.48;100.00
13314;BME280;6725;48.112;11.604;2022-08-19T02:16:21;93859.78;;;19.44;100.00
13314;BME280;6725;48.112;11.604;2022-08-19T02:18:47;93870.13;;;19.49;100.00
13314;BME280;6725;48.112;11.604;2022-08-19T02:21:20;93883.22;;;19.49;100.00
13314;BME280;6725;48.112;11.604;2022-08-19T02:23:46;93886.25;;;19.51;100.00
13314;BME280;6725;48.112;11.604;2022-08-19T02:26:12;93895.56;;;19.53;100.00
13314;BME280;6725;48.112;11.604;2022-08-19T02:28:39;93908.41;;;19.51;100.00
13314;BME280;6725;48.112;11.604;2022-08-19T02:31:09;93916.25;;;19.58;100.00
13314;BME280;6725;48.112;11.604;2022-08-19T02:33:35;93924.06;;;19.60;100.00
13314;BME280;6725;48.112;11.604;2022-08-19T02:36:04;93926.06;;;19.59;100.00
13314;BME280;6725;48.112;11.604;2022-08-19T02:38:30;93925.53;;;19.55;100.00
13314;BME280;6725;48.112;11.604;2022-08-19T02:40:58;93922.81;;;19.61;100.00
13314;BME280;6725;48.112;11.604;2022-08-19T02:43:24;93909.69;;;19.56;100.00
13314;BME280;6725;48.112;11.604;2022-08-19T02:45:51;93891.56;;;19.55;100.00
13314;BME280;6725;48.112;11.604;2022-08-19T02:48:21;93884.28;;;19.57;100.00
13314;BME280;6725;48.112;11.604;2022-08-19T02:50:49;93889.78;;;19.52;100.00
13314;BME280;6725;48.112;11.604;2022-08-19T02:53:17;93900.06;;;19.45;100.00
13314;BME280;6725;48.112;11.604;2022-08-19T02:55:47;93890.47;;;19.41;100.00
13314;BME280;6725;48.112;11.604;2022-08-19T02:58:14;93877.66;;;19.38;100.00
13314;BME280;6725;48.112;11.604;2022-08-19T03:00:48;93879.16;;;19.39;100.00
13314;BME280;6725;48.112;11.604;2022-08-19T03:03:15;93876.34;;;19.33;100.00
13314;BME280;6725;48.112;11.604;2022-08-19T03:05:41;93880.13;;;19.30;100.00
13314;BME280;6725;48.112;11.604;2022-08-19T03:08:08;93865.00;;;19.26;100.00
13314;BME280;6725;48.112;11.604;2022-08-19T03:10:45;93866.44;;;19.16;100.00
13314;BME280;6725;48.112;11.604;2022-08-19T03:13:14;93854.06;;;19.11;100.00
13314;BME280;6725;48.112;11.604;2022-08-19T03:15:44;93842.75;;;19.15;100.00
13314;BME280;6725;48.112;11.604;2022-08-19T03:18:11;93828.66;;;19.13;100.00
13314;BME280;6725;48.112;11.604;2022-08-19T03:20:44;93821.59;;;19.12;100.00
13314;BME280;6725;48.112;11.604;2022-08-19T03:23:11;93825.63;;;19.11;100.00
13314;BME280;6725;48.112;11.604;2022-08-19T03:25:44;93834.22;;;19.13;100.00
13314;BME280;6725;48.112;11.604;2022-08-19T03:28:11;93833.22;;;19.16;100.00
13314;BME280;6725;48.112;11.604;2022-08-19T03:30:37;93829.72;;;19.21;100.00
13314;BME280;6725;48.112;11.604;2022-08-19T03:33:04;93832.75;;;19.23;100.00
13314;BME280;6725;48.112;11.604;2022-08-19T03:35:30;93829.28;;;19.28;100.00
13314;BME280;6725;48.112;11.604;2022-08-19T03:37:55;93829.50;;;19.30;100.00
13314;BME280;6725;48.112;11.604;2022-08-19T03:40:21;93818.97;;;19.34;100.00
13314;BME280;6725;48.112;11.604;2022-08-19T03:42:47;93828.78;;;19.35;100.00
13314;BME280;6725;48.112;11.604;2022-08-19T03:45:12;93829.81;;;19.37;100.00
13314;BME280;6725;48.112;11.604;2022-08-19T03:47:37;93841.13;;;19.34;100.00
13314;BME280;6725;48.112;11.604;2022-08-19T03:50:04;93842.63;;;19.35;100.00
13314;BME280;6725;48.112;11.604;2022-08-19T03:52:29;93843.63;;;19.32;100.00
13314;BME280;6725;48.112;11.604;2022-08-19T03:54:55;93843.91;;;19.34;100.00
13314;BME280;6725;48.112;11.604;2022-08-19T03:57:20;93843.16;;;19.39;100.00
13314;BME280;6725;48.112;11.604;2022-08-19T03:59:46;93855.50;;;19.38;100.00
13314;BME280;6725;48.112;11.604;2022-08-19T04:02:12;93846.41;;;19.32;100.00
13314;BME280;6725;48.112;11.604;2022-08-19T04:04:40;93857.47;;;19.32;100.00
13314;BME280;6725;48.112;11.604;2022-08-19T04:07:06;93845.13;;;19.33;100.00
13314;BME280;6725;48.112;11.604;2022-08-19T04:09:34;93844.91;;;19.36;100.00
13314;BME280;6725;48.112;11.604;2022-08-19T04:12:18;93850.19;;;19.40;100.00
13314;BME280;6725;48.112;11.604;2022-08-19T04:14:45;93855.00;;;19.39;100.00
13314;BME280;6725;48.112;11.604;2022-08-19T04:17:10;93864.03;;;19.40;100.00
13314;BME280;6725;48.112;11.604;2022-08-19T04:19:39;93875.13;;;19.40;100.00
13314;BME280;6725;48.112;11.604;2022-08-19T04:22:05;93872.63;;;19.42;100.00
13314;BME280;6725;48.112;11.604;2022-08-19T04:24:31;93872.63;;;19.42;100.00
13314;BME280;6725;48.112;11.604;2022-08-19T04:26:59;93873.16;;;19.46;100.00
13314;BME280;6725;48.112;11.604;2022-08-19T04:29:25;93880.19;;;19.47;100.00
13314;BME280;6725;48.112;11.604;2022-08-19T04:31:54;93891.06;;;19.51;100.00
13314;BME280;6725;48.112;11.604;2022-08-19T04:34:22;93908.41;;;19.51;100.00
13314;BME280;6725;48.112;11.604;2022-08-19T04:36:48;93919.25;;;19.49;100.00
13314;BME280;6725;48.112;11.604;2022-08-19T04:39:19;93921.00;;;19.52;100.00
13314;BME280;6725;48.112;11.604;2022-08-19T04:41:45;93920.00;;;19.55;100.00
13314;BME280;6725;48.112;11.604;2022-08-19T04:44:34;93934.34;;;19.53;100.00
13314;BME280;6725;48.112;11.604;2022-08-19T04:47:01;93945.66;;;19.50;100.00
13314;BME280;6725;48.112;11.604;2022-08-19T04:49:26;93956.50;;;19.53;100.00
13314;BME280;6725;48.112;11.604;2022-08-19T04:51:53;93951.47;;;19.58;100.00
13314;BME280;6725;48.112;11.604;2022-08-19T04:54:19;93967.38;;;19.57;100.00
13314;BME280;6725;48.112;11.604;2022-08-19T04:56:50;93971.66;;;19.58;100.00
13314;BME280;6725;48.112;11.604;2022-08-19T04:59:17;93961.06;;;19.57;100.00
13314;BME280;6725;48.112;11.604;2022-08-19T05:01:45;93956.75;;;19.50;100.00
13314;BME280;6725;48.112;11.604;2022-08-19T05:04:14;93957.00;;;19.52;100.00
13314;BME280;6725;48.112;11.604;2022-08-19T05:06:40;93959.75;;;19.52;100.00
13314;BME280;6725;48.112;11.604;2022-08-19T05:09:06;93966.84;;;19.53;100.00
13314;BME280;6725;48.112;11.604;2022-08-19T05:11:34;93968.59;;;19.51;100.00
13314;BME280;6725;48.112;11.604;2022-08-19T05:14:03;93971.63;;;19.52;100.00
13314;BME280;6725;48.112;11.604;2022-08-19T05:16:29;93968.63;;;19.56;100.00
13314;BME280;6725;48.112;11.604;2022-08-19T05:18:55;93964.84;;;19.59;100.00
13314;BME280;6725;48.112;11.604;2022-08-19T05:21:40;93969.13;;;19.55;100.00
13314;BME280;6725;48.112;11.604;2022-08-19T05:24:25;93986.25;;;19.59;100.00
13314;BME280;6725;48.112;11.604;2022-08-19T05:26:52;93986.25;;;19.59;100.00
13314;BME280;6725;48.112;11.604;2022-08-19T05:29:20;93987.28;;;19.61;100.00
13314;BME280;6725;48.112;11.604;2022-08-19T05:31:47;93989.06;;;19.64;100.00
13314;BME280;6725;48.112;11.604;2022-08-19T05:34:15;93985.31;;;19.67;100.00
13314;BME280;6725;48.112;11.604;2022-08-19T05:36:42;93990.09;;;19.72;100.00
13314;BME280;6725;48.112;11.604;2022-08-19T05:39:11;93995.41;;;19.76;100.00
13314;BME280;6725;48.112;11.604;2022-08-19T05:41:44;94007.53;;;19.78;100.00
13314;BME280;6725;48.112;11.604;2022-08-19T05:44:10;94001.47;;;19.80;100.00
13314;BME280;6725;48.112;11.604;2022-08-19T05:46:37;93998.19;;;19.81;100.00
13314;BME280;6725;48.112;11.604;2022-08-19T05:49:06;94009.31;;;19.87;100.00
13314;BME280;6725;48.112;11.604;2022-08-19T05:51:33;94021.91;;;19.82;100.00
13314;BME280;6725;48.112;11.604;2022-08-19T05:53:59;94022.44;;;19.86;100.00
13314;BME280;6725;48.112;11.604;2022-08-19T05:56:25;94026.47;;;19.91;100.00
13314;BME280;6725;48.112;11.604;2022-08-19T05:58:50;94031.28;;;19.96;100.00
13314;BME280;6725;48.112;11.604;2022-08-19T06:01:17;94035.06;;;19.98;100.00
13314;BME280;6725;48.112;11.604;2022-08-19T06:03:43;94042.06;;;19.88;100.00
13314;BME280;6725;48.112;11.604;2022-08-19T06:06:11;94024.47;;;19.91;100.00
13314;BME280;6725;48.112;11.604;2022-08-19T06:08:37;94006.03;;;19.88;100.00
13314;BME280;6725;48.112;11.604;2022-08-19T06:13:41;93980.84;;;19.81;100.00
13314;BME280;6725;48.112;11.604;2022-08-19T06:16:06;93967.69;;;19.76;100.00
13314;BME280;6725;48.112;11.604;2022-08-19T06:18:31;93948.03;;;19.68;100.00
13314;BME280;6725;48.112;11.604;2022-08-19T06:20:58;93921.03;;;19.63;100.00
13314;BME280;6725;48.112;11.604;2022-08-19T06:23:23;93890.81;;;19.54;100.00
13314;BME280;6725;48.112;11.604;2022-08-19T06:25:49;93858.31;;;19.49;100.00
13314;BME280;6725;48.112;11.604;2022-08-19T06:28:14;93820.25;;;19.44;100.00
13314;BME280;6725;48.112;11.604;2022-08-19T06:30:39;93775.44;;;19.40;100.00
13314;BME280;6725;48.112;11.604;2022-08-19T06:33:05;93745.72;;;19.35;100.00
13314;BME280;6725;48.112;11.604;2022-08-19T06:35:30;93707.22;;;19.37;100.00
13314;BME280;6725;48.112;11.604;2022-08-19T06:37:55;93666.19;;;19.41;100.00
13314;BME280;6725;48.112;11.604;2022-08-19T06:40:21;93631.97;;;19.44;100.00
13314;BME280;6725;48.112;11.604;2022-08-19T06:42:46;93605.78;;;19.45;100.00
13314;BME280;6725;48.112;11.604;2022-08-19T06:45:12;93572.56;;;19.45;100.00
13314;BME280;6725;48.112;11.604;2022-08-19T06:47:37;93565.00;;;19.40;100.00
13314;BME280;6725;48.112;11.604;2022-08-19T06:50:03;93541.06;;;19.42;100.00
13314;BME280;6725;48.112;11.604;2022-08-19T06:52:33;93522.72;;;19.45;100.00
13314;BME280;6725;48.112;11.604;2022-08-19T06:55:00;93498.53;;;19.51;100.00
13314;BME280;6725;48.112;11.604;2022-08-19T06:57:26;93493.97;;;19.59;100.00
13314;BME280;6725;48.112;11.604;2022-08-19T06:59:52;93465.50;;;19.70;100.00
13314;BME280;6725;48.112;11.604;2022-08-19T07:02:18;93459.44;;;19.77;100.00
13314;BME280;6725;48.112;11.604;2022-08-19T07:04:44;93442.53;;;19.80;100.00
13314;BME280;6725;48.112;11.604;2022-08-19T07:07:12;93451.63;;;19.75;100.00
13314;BME280;6725;48.112;11.604;2022-08-19T07:09:42;93453.13;;;19.76;100.00
13314;BME280;6725;48.112;11.604;2022-08-19T07:12:11;93448.59;;;19.73;100.00
13314;BME280;6725;48.112;11.604;2022-08-19T07:14:38;93441.75;;;19.85;100.00
13314;BME280;6725;48.112;11.604;2022-08-19T07:17:06;93431.34;;;20.02;100.00
13314;BME280;6725;48.112;11.604;2022-08-19T07:19:33;93409.56;;;20.28;100.00
13314;BME280;6725;48.112;11.604;2022-08-19T07:22:00;93405.44;;;20.40;100.00
13314;BME280;6725;48.112;11.604;2022-08-19T07:24:27;93418.53;;;20.45;100.00
13314;BME280;6725;48.112;11.604;2022-08-19T07:26:55;93428.81;;;20.50;100.00
13314;BME280;6725;48.112;11.604;2022-08-19T07:29:23;93440.09;;;20.63;100.00
13314;BME280;6725;48.112;11.604;2022-08-19T07:31:50;93459.16;;;20.72;100.00
13314;BME280;6725;48.112;11.604;2022-08-19T07:34:16;93476.53;;;20.78;100.00
13314;BME280;6725;48.112;11.604;2022-08-19T07:36:42;93484.31;;;20.85;100.00
13314;BME280;6725;48.112;11.604;2022-08-19T07:39:29;93523.66;;;20.89;100.00
13314;BME280;6725;48.112;11.604;2022-08-19T07:41:57;93549.91;;;20.88;100.00
13314;BME280;6725;48.112;11.604;2022-08-19T07:44:23;93582.19;;;20.86;100.00
13314;BME280;6725;48.112;11.604;2022-08-19T07:46:51;93615.53;;;20.80;100.00
13314;BME280;6725;48.112;11.604;2022-08-19T07:49:18;93632.75;;;20.73;100.00
13314;BME280;6725;48.112;11.604;2022-08-19T07:51:50;93654.44;;;20.69;100.00
13314;BME280;6725;48.112;11.604;2022-08-19T07:54:17;93665.03;;;20.65;100.00
13314;BME280;6725;48.112;11.604;2022-08-19T07:56:43;93656.69;;;20.71;100.00
13314;BME280;6725;48.112;11.604;2022-08-19T07:59:08;93670.81;;;20.73;100.00
13314;BME280;6725;48.112;11.604;2022-08-19T08:01:35;93674.59;;;20.75;100.00
13314;BME280;6725;48.112;11.604;2022-08-19T08:04:00;93703.63;;;20.69;100.00
13314;BME280;6725;48.112;11.604;2022-08-19T08:06:44;93699.88;;;20.66;100.00
13314;BME280;6725;48.112;11.604;2022-08-19T08:09:32;93725.63;;;20.39;100.00
13314;BME280;6725;48.112;11.604;2022-08-19T08:12:07;93703.97;;;20.32;100.00
13314;BME280;6725;48.112;11.604;2022-08-19T08:14:44;93697.69;;;20.26;100.00
13314;BME280;6725;48.112;11.604;2022-08-19T08:17:14;93688.13;;;20.22;100.00
13314;BME280;6725;48.112;11.604;2022-08-19T08:19:39;93683.06;;;20.20;100.00
13314;BME280;6725;48.112;11.604;2022-08-19T08:22:07;93672.47;;;20.19;100.00
13314;BME280;6725;48.112;11.604;2022-08-19T08:24:33;93670.19;;;20.28;100.00
13314;BME280;6725;48.112;11.604;2022-08-19T08:27:01;93665.16;;;20.27;100.00
13314;BME280;6725;48.112;11.604;2022-08-19T08:29:29;93669.69;;;20.24;100.00
13314;BME280;6725;48.112;11.604;2022-08-19T08:31:55;93659.13;;;20.23;100.00
13314;BME280;6725;48.112;11.604;2022-08-19T08:34:21;93662.16;;;20.19;100.00
13314;BME280;6725;48.112;11.604;2022-08-19T08:36:47;93663.16;;;20.16;100.00
13314;BME280;6725;48.112;11.604;2022-08-19T08:39:18;93649.81;;;20.15;100.00
13314;BME280;6725;48.112;11.604;2022-08-19T08:42:15;93639.72;;;20.17;100.00
13314;BME280;6725;48.112;11.604;2022-08-19T08:45:03;93623.84;;;20.18;100.00
13314;BME280;6725;48.112;11.604;2022-08-19T08:47:35;93627.91;;;20.11;100.00
13314;BME280;6725;48.112;11.604;2022-08-19T08:50:12;93633.69;;;19.97;100.00
13314;BME280;6725;48.112;11.604;2022-08-19T08:52:43;93615.28;;;19.94;100.00
13314;BME280;6725;48.112;11.604;2022-08-19T08:55:12;93604.72;;;19.92;100.00
13314;BME280;6725;48.112;11.604;2022-08-19T08:58:17;93597.19;;;19.87;100.00
13314;BME280;6725;48.112;11.604;2022-08-19T09:00:47;93582.06;;;19.88;100.00
13314;BME280;6725;48.112;11.604;2022-08-19T09:03:19;93570.25;;;19.82;100.00
13314;BME280;6725;48.112;11.604;2022-08-19T09:11:15;93526.94;;;19.79;100.00
13314;BME280;6725;48.112;11.604;2022-08-19T09:16:39;93497.41;;;19.87;100.00
13314;BME280;6725;48.112;11.604;2022-08-19T09:19:07;93496.44;;;19.79;100.00
13314;BME280;6725;48.112;11.604;2022-08-19T09:21:33;93476.78;;;19.77;100.00
13314;BME280;6725;48.112;11.604;2022-08-19T09:24:00;93466.72;;;19.74;100.00
13314;BME280;6725;48.112;11.604;2022-08-19T09:26:26;93459.19;;;19.75;100.00
13314;BME280;6725;48.112;11.604;2022-08-19T09:28:53;93450.38;;;19.76;100.00
13314;BME280;6725;48.112;11.604;2022-08-19T09:31:22;93441.03;;;19.79;100.00
13314;BME280;6725;48.112;11.604;2022-08-19T09:34:03;93423.88;;;19.86;100.00
13314;BME280;6725;48.112;11.604;2022-08-19T09:36:31;93409.94;;;20.03;100.00
13314;BME280;6725;48.112;11.604;2022-08-19T09:38:59;93395.53;;;20.15;100.00
13314;BME280;6725;48.112;11.604;2022-08-19T09:41:26;93379.53;;;20.32;100.00
13314;BME280;6725;48.112;11.604;2022-08-19T09:43:53;93356.47;;;20.48;100.00
13314;BME280;6725;48.112;11.604;2022-08-19T09:46:22;93346.69;;;20.71;100.00
13314;BME280;6725;48.112;11.604;2022-08-19T09:48:49;93336.97;;;20.83;100.00
13314;BME280;6725;48.112;11.604;2022-08-19T09:51:21;93343.38;;;21.02;100.00
13314;BME280;6725;48.112;11.604;2022-08-19T09:53:48;93348.41;;;21.28;100.00
13314;BME280;6725;48.112;11.604;2022-08-19T09:56:17;93376.69;;;21.50;100.00
13314;BME280;6725;48.112;11.604;2022-08-19T09:58:42;93409.25;;;21.74;100.00
13314;BME280;6725;48.112;11.604;2022-08-19T10:01:08;93456.28;;;21.96;100.00
13314;BME280;6725;48.112;11.604;2022-08-19T10:03:34;93536.97;;;21.90;100.00
13314;BME280;6725;48.112;11.604;2022-08-19T10:06:01;93628.94;;;21.92;100.00
13314;BME280;6725;48.112;11.604;2022-08-19T10:08:30;93673.22;;;22.14;100.00
13314;BME280;6725;48.112;11.604;2022-08-19T10:10:57;93747.91;;;22.34;100.00
13314;BME280;6725;48.112;11.604;2022-08-19T10:13:25;93812.38;;;22.38;100.00
13314;BME280;6725;48.112;11.604;2022-08-19T10:15:56;93857.72;;;22.63;100.00
13314;BME280;6725;48.112;11.604;2022-08-19T10:18:23;93933.63;;;22.64;100.00
13314;BME280;6725;48.112;11.604;2022-08-19T10:20:50;93984.25;;;22.68;100.00
13314;BME280;6725;48.112;11.604;2022-08-19T10:23:18;93979.97;;;22.96;100.00
13314;BME280;6725;48.112;11.604;2022-08-19T10:25:44;93993.00;;;23.12;100.00
13314;BME280;6725;48.112;11.604;2022-08-19T10:28:09;94028.81;;;23.38;100.00
13314;BME280;6725;48.112;11.604;2022-08-19T10:30:37;94100.66;;;23.56;100.00
13314;BME280;6725;48.112;11.604;2022-08-19T10:33:03;94152.97;;;23.74;100.00
13314;BME280;6725;48.112;11.604;2022-08-19T10:35:29;94191.19;;;24.43;100.00
13314;BME280;6725;48.112;11.604;2022-08-19T10:37:56;94248.44;;;24.55;100.00
13314;BME280;6725;48.112;11.604;2022-08-19T10:40:27;94297.91;;;24.66;100.00
13314;BME280;6725;48.112;11.604;2022-08-19T10:42:53;94312.19;;;24.51;100.00
13314;BME280;6725;48.112;11.604;2022-08-19T10:45:19;94361.00;;;24.45;100.00
13314;BME280;6725;48.112;11.604;2022-08-19T10:47:47;94376.66;;;25.18;100.00
13314;BME280;6725;48.112;11.604;2022-08-19T10:50:12;94411.91;;;25.32;100.00
13314;BME280;6725;48.112;11.604;2022-08-19T10:52:56;94470.44;;;25.19;100.00
13314;BME280;6725;48.112;11.604;2022-08-19T10:55:23;94495.09;;;25.15;100.00
13314;BME280;6725;48.112;11.604;2022-08-19T10:58:18;94482.78;;;25.64;100.00
13314;BME280;6725;48.112;11.604;2022-08-19T11:00:54;94507.25;;;25.82;100.00
13314;BME280;6725;48.112;11.604;2022-08-19T11:03:20;94524.75;;;25.88;100.00
13314;BME280;6725;48.112;11.604;2022-08-19T11:05:47;94527.00;;;25.36;100.00
13314;BME280;6725;48.112;11.604;2022-08-19T11:08:21;94492.91;;;25.02;100.00
13314;BME280;6725;48.112;11.604;2022-08-19T11:10:47;94458.53;;;24.78;100.00
13314;BME280;6725;48.112;11.604;2022-08-19T11:13:12;94458.28;;;24.76;100.00
13314;BME280;6725;48.112;11.604;2022-08-19T11:15:38;94459.53;;;24.80;100.00
13314;BME280;6725;48.112;11.604;2022-08-19T11:18:04;94455.28;;;24.74;100.00
13314;BME280;6725;48.112;11.604;2022-08-19T11:20:30;94477.47;;;24.96;100.00
13314;BME280;6725;48.112;11.604;2022-08-19T11:22:56;94468.88;;;25.23;100.00
13314;BME280;6725;48.112;11.604;2022-08-19T11:25:21;94499.88;;;25.85;100.00
13314;BME280;6725;48.112;11.604;2022-08-19T11:27:47;94546.81;;;26.45;100.00
13314;BME280;6725;48.112;11.604;2022-08-19T11:30:17;94565.94;;;26.65;100.00
13314;BME280;6725;48.112;11.604;2022-08-19T11:32:42;94596.84;;;26.60;100.00
13314;BME280;6725;48.112;11.604;2022-08-19T11:35:08;94632.69;;;25.78;100.00
13314;BME280;6725;48.112;11.604;2022-08-19T11:37:33;94633.88;;;25.59;100.00
13314;BME280;6725;48.112;11.604;2022-08-19T11:40:03;94589.56;;;25.33;100.00
13314;BME280;6725;48.112;11.604;2022-08-19T11:42:28;94589.25;;;24.96;100.00
13314;BME280;6725;48.112;11.604;2022-08-19T11:45:12;94563.97;;;24.72;100.00
13314;BME280;6725;48.112;11.604;2022-08-19T11:47:38;94559.97;;;24.62;100.00
13314;BME280;6725;48.112;11.604;2022-08-19T11:50:04;94549.13;;;24.36;100.00
13314;BME280;6725;48.112;11.604;2022-08-19T11:52:31;94559.31;;;24.23;100.00
13314;BME280;6725;48.112;11.604;2022-08-19T11:54:56;94550.47;;;24.08;100.00
13314;BME280;6725;48.112;11.604;2022-08-19T11:57:21;94557.03;;;24.27;100.00
13314;BME280;6725;48.112;11.604;2022-08-19T11:59:49;94577.56;;;24.29;100.00
13314;BME280;6725;48.112;11.604;2022-08-19T12:02:14;94586.47;;;24.17;100.00
13314;BME280;6725;48.112;11.604;2022-08-19T12:04:40;94586.69;;;24.35;100.00
13314;BME280;6725;48.112;11.604;2022-08-19T12:07:05;94577.34;;;24.27;100.00
13314;BME280;6725;48.112;11.604;2022-08-19T12:09:31;94556.75;;;24.30;100.00
13314;BME280;6725;48.112;11.604;2022-08-19T12:11:57;94562.56;;;24.38;100.00
13314;BME280;6725;48.112;11.604;2022-08-19T12:14:22;94563.06;;;24.42;100.00
13314;BME280;6725;48.112;11.604;2022-08-19T12:16:48;94582.41;;;24.29;100.00
13314;BME280;6725;48.112;11.604;2022-08-19T12:19:13;94593.34;;;24.05;100.00
13314;BME280;6725;48.112;11.604;2022-08-19T12:21:39;94572.53;;;24.11;100.00
13314;BME280;6725;48.112;11.604;2022-08-19T12:24:05;94570.19;;;24.32;100.00
13314;BME280;6725;48.112;11.604;2022-08-19T12:26:31;94598.59;;;24.47;100.00
13314;BME280;6725;48.112;11.604;2022-08-19T12:28:57;94605.44;;;24.40;100.00
13314;BME280;6725;48.112;11.604;2022-08-19T12:31:25;94600.84;;;24.48;100.00
13314;BME280;6725;48.112;11.604;2022-08-19T12:33:50;94604.47;;;24.32;100.00
13314;BME280;6725;48.112;11.604;2022-08-19T12:36:17;94618.94;;;24.31;100.00
13314;BME280;6725;48.112;11.604;2022-08-19T12:38:43;94633.91;;;24.28;100.00
13314;BME280;6725;48.112;11.604;2022-08-19T12:41:11;94623.50;;;24.34;100.00
13314;BME280;6725;48.112;11.604;2022-08-19T12:43:37;94624.94;;;24.62;100.00
13314;BME280;6725;48.112;11.604;2022-08-19T12:46:04;94635.88;;;24.55;100.00
13314;BME280;6725;48.112;11.604;2022-08-19T12:48:30;94643.19;;;24.80;100.00
13314;BME280;6725;48.112;11.604;2022-08-19T12:50:56;94648.53;;;24.78;100.00
13314;BME280;6725;48.112;11.604;2022-08-19T12:53:22;94646.25;;;24.76;100.00
13314;BME280;6725;48.112;11.604;2022-08-19T12:55:47;94657.78;;;25.08;100.00
13314;BME280;6725;48.112;11.604;2022-08-19T12:58:12;94664.00;;;24.79;100.00
13314;BME280;6725;48.112;11.604;2022-08-19T13:00:39;94659.06;;;25.07;100.00
13314;BME280;6725;48.112;11.604;2022-08-19T13:03:05;94677.53;;;25.32;100.00
13314;BME280;6725;48.112;11.604;2022-08-19T13:05:32;94693.91;;;25.58;100.00
13314;BME280;6725;48.112;11.604;2022-08-19T13:07:59;94696.66;;;25.63;100.00